Time;durP1;ratioP1;P1;durP2;ratioP2;P2;SDS_P1;SDS_P2;PMS_P1;PMS_P2;Temp;Humidity;BMP_temperature;BMP_pressure;BME280_temperature;BME280_humidity;BME280_pressure;Samples;Min_cycle;Max_cycle;Signal;HPM_P1;HPM_P2
2022/06/28 00:02:04;;;;;;;2.00;1.80;;;19.40;62.10;;;;;;4902509;29;20467;-75
2022/06/28 00:04:30;;;;;;;2.00;1.80;;;19.40;62.20;;;;;;4919383;29;20039;-76
2022/06/28 00:06:56;;;;;;;2.60;1.80;;;19.40;62.10;;;;;;4918400;29;20443;-76
2022/06/28 00:09:22;;;;;;;2.40;1.65;;;19.30;62.20;;;;;;4902453;29;20036;-74
2022/06/28 00:11:50;;;;;;;2.20;1.73;;;19.30;62.20;;;;;;4887182;29;20048;-75
2022/06/28 00:17:00;;;;;;;2.07;1.87;;;19.30;62.30;;;;;;4889889;29;20087;-76
2022/06/28 00:19:26;;;;;;;2.58;1.80;;;19.30;62.20;;;;;;4917930;29;20056;-75
2022/06/28 00:21:52;;;;;;;2.92;1.83;;;19.20;62.20;;;;;;4902313;29;20028;-75
2022/06/28 00:24:17;;;;;;;2.10;1.65;;;19.20;62.90;;;;;;4902343;29;20036;-75
2022/06/28 00:26:43;;;;;;;1.98;1.75;;;19.20;62.30;;;;;;4871291;29;20039;-76
2022/06/28 00:29:09;;;;;;;2.70;1.88;;;19.20;62.40;;;;;;4917947;29;20039;-78
2022/06/28 00:31:35;;;;;;;2.63;1.90;;;19.10;62.30;;;;;;4901982;29;20029;-77
2022/06/28 00:34:03;;;;;;;1.98;1.70;;;19.10;62.40;;;;;;4886332;29;20046;-77
2022/06/28 00:36:29;;;;;;;2.25;1.80;;;19.10;62.40;;;;;;4902196;29;20032;-75
2022/06/28 00:38:54;;;;;;;3.13;2.10;;;19.10;62.40;;;;;;4902347;29;20044;-74
2022/06/28 00:41:20;;;;;;;2.35;1.95;;;19.10;62.40;;;;;;4870912;29;20410;-75
2022/06/28 00:43:46;;;;;;;1.77;1.65;;;19.00;62.40;;;;;;4887211;29;20066;-75
2022/06/28 00:46:13;;;;;;;3.13;2.00;;;19.00;63.10;;;;;;4870942;29;20398;-76
2022/06/28 00:48:39;;;;;;;1.80;1.70;;;19.00;62.50;;;;;;4870702;29;20059;-74
2022/06/28 00:51:07;;;;;;;2.05;1.85;;;19.00;62.50;;;;;;4919133;29;20071;-75
2022/06/28 00:53:33;;;;;;;2.47;1.90;;;19.00;62.50;;;;;;4886525;29;20044;-76
2022/06/28 00:55:59;;;;;;;2.63;1.88;;;19.00;62.50;;;;;;4901288;29;20036;-76
2022/06/28 00:58:24;;;;;;;2.45;1.80;;;18.90;62.50;;;;;;4918483;29;20461;-76
2022/06/28 01:00:50;;;;;;;1.90;1.70;;;18.90;62.50;;;;;;4917342;29;20039;-75
2022/06/28 01:03:19;;;;;;;2.67;2.22;;;18.90;62.60;;;;;;4917894;29;20051;-76
2022/06/28 01:05:48;;;;;;;2.05;1.83;;;18.90;62.60;;;;;;4917566;29;20032;-75
2022/06/28 01:08:15;;;;;;;2.70;2.10;;;18.90;62.60;;;;;;4885906;29;20492;-75
2022/06/28 01:10:43;;;;;;;2.55;2.10;;;18.90;62.60;;;;;;4901510;29;20036;-77
2022/06/28 01:13:11;;;;;;;2.28;2.03;;;18.80;62.60;;;;;;4917211;29;20040;-75
2022/06/28 01:15:40;;;;;;;2.42;2.13;;;18.80;62.60;;;;;;4901284;29;20032;-77
2022/06/28 01:18:08;;;;;;;2.72;2.20;;;18.80;62.70;;;;;;4916969;29;20032;-75
2022/06/28 01:20:44;;;;;;;2.90;2.00;;;18.80;62.70;;;;;;4886791;29;20052;-75
2022/06/28 01:23:20;;;;;;;2.47;2.00;;;18.80;62.70;;;;;;4887398;29;20031;-75
2022/06/28 01:25:51;;;;;;;3.40;2.53;;;18.80;62.70;;;;;;4887100;29;20119;-76
2022/06/28 01:28:24;;;;;;;2.92;2.28;;;18.70;63.30;;;;;;4917033;29;20219;-76
2022/06/28 01:30:55;;;;;;;2.50;2.10;;;18.70;62.70;;;;;;4871765;29;20042;-75
2022/06/28 01:33:25;;;;;;;2.45;2.10;;;18.70;62.70;;;;;;4901293;29;20040;-75
2022/06/28 01:35:53;;;;;;;2.50;2.00;;;18.70;62.70;;;;;;4885842;29;20147;-78
2022/06/28 01:38:22;;;;;;;2.97;2.33;;;18.60;62.70;;;;;;4870157;29;20033;-75
2022/06/28 01:40:49;;;;;;;2.47;2.17;;;18.60;62.80;;;;;;4916641;29;20039;-75
2022/06/28 01:43:18;;;;;;;2.63;2.35;;;18.60;62.80;;;;;;4900736;29;20028;-75
2022/06/28 01:45:45;;;;;;;2.45;2.22;;;18.60;62.90;;;;;;4932263;29;20068;-75
2022/06/28 01:48:12;;;;;;;3.22;2.25;;;18.60;62.90;;;;;;4900845;29;20028;-75
2022/06/28 01:50:56;;;;;;;2.78;2.40;;;18.60;62.80;;;;;;4900723;29;20035;-75
2022/06/28 01:53:22;;;;;;;2.95;2.50;;;18.50;62.80;;;;;;4901352;29;20079;-77
2022/06/28 01:55:53;;;;;;;2.45;1.95;;;18.50;62.90;;;;;;4900878;29;20051;-74
2022/06/28 01:58:40;;;;;;;3.47;2.42;;;18.50;62.90;;;;;;4917133;29;20477;-75
2022/06/28 02:01:06;;;;;;;2.80;2.40;;;18.50;62.80;;;;;;4869585;29;20032;-75
2022/06/28 02:03:33;;;;;;;2.65;2.22;;;18.40;62.80;;;;;;4869534;29;20040;-76
2022/06/28 02:06:08;;;;;;;3.22;2.33;;;18.40;62.80;;;;;;4916264;29;20040;-74
2022/06/28 02:08:35;;;;;;;3.05;2.47;;;18.40;62.80;;;;;;4916227;29;20342;-76
2022/06/28 02:11:04;;;;;;;2.40;2.20;;;18.40;62.90;;;;;;4885104;29;20036;-74
2022/06/28 02:13:40;;;;;;;2.38;2.17;;;18.40;62.90;;;;;;4915851;29;20131;-74
2022/06/28 02:16:06;;;;;;;3.10;2.50;;;18.40;62.90;;;;;;4916174;29;20389;-75
2022/06/28 02:18:33;;;;;;;2.55;2.17;;;18.40;62.90;;;;;;4883965;29;20028;-76
2022/06/28 02:21:02;;;;;;;3.38;2.60;;;18.30;62.90;;;;;;4885885;29;20481;-76
2022/06/28 02:23:28;;;;;;;3.22;2.60;;;18.30;63.60;;;;;;4869076;29;20032;-77
2022/06/28 02:25:54;;;;;;;3.38;2.55;;;18.30;63.00;;;;;;4869502;29;20043;-75
2022/06/28 02:28:20;;;;;;;3.05;2.47;;;18.30;63.00;;;;;;4885279;29;20054;-75
2022/06/28 02:30:46;;;;;;;3.45;2.65;;;18.20;62.90;;;;;;4917235;29;20513;-75
2022/06/28 02:33:12;;;;;;;2.80;2.50;;;18.20;62.90;;;;;;4900038;29;20107;-75
2022/06/28 02:41:06;;;;;;;3.47;2.53;;;18.20;63.00;;;;;;4887426;29;20040;-75
2022/06/28 02:43:32;;;;;;;3.63;2.53;;;18.20;63.00;;;;;;4884277;29;20055;-75
2022/06/28 02:45:58;;;;;;;3.13;2.50;;;18.10;63.00;;;;;;4915647;29;20043;-78
2022/06/28 02:48:24;;;;;;;3.20;2.53;;;18.10;63.00;;;;;;4884448;29;20036;-75
2022/06/28 02:50:49;;;;;;;4.20;2.63;;;18.10;63.00;;;;;;4868983;29;20036;-77
2022/06/28 02:53:15;;;;;;;3.35;2.38;;;18.10;63.10;;;;;;4883854;29;20043;-75
2022/06/28 02:55:41;;;;;;;4.35;2.75;;;18.10;63.10;;;;;;4868580;29;20088;-76
2022/06/28 02:58:06;;;;;;;2.95;2.45;;;18.10;63.10;;;;;;4884236;29;20028;-76
2022/06/28 03:00:32;;;;;;;3.78;2.63;;;18.10;63.10;;;;;;4899212;29;20032;-75
2022/06/28 03:02:58;;;;;;;2.85;2.45;;;18.00;63.10;;;;;;4884423;29;20038;-74
2022/06/28 03:05:24;;;;;;;3.22;2.40;;;18.00;63.10;;;;;;4899174;29;20405;-75
2022/06/28 03:07:51;;;;;;;2.30;2.10;;;18.00;63.10;;;;;;4884520;29;20091;-74
2022/06/28 03:10:19;;;;;;;3.50;2.53;;;18.00;63.20;;;;;;4884228;29;20032;-75
2022/06/28 03:12:45;;;;;;;4.95;2.60;;;18.00;63.20;;;;;;4915504;29;20038;-76
2022/06/28 03:15:13;;;;;;;3.78;2.70;;;18.00;63.20;;;;;;4915470;29;20032;-76
2022/06/28 03:17:41;;;;;;;3.78;2.42;;;17.90;63.10;;;;;;4914884;29;20047;-75
2022/06/28 03:20:07;;;;;;;4.20;2.50;;;17.90;63.20;;;;;;4912252;29;20076;-76
2022/06/28 03:22:33;;;;;;;3.13;2.45;;;17.90;63.20;;;;;;4896974;29;20096;-76
2022/06/28 03:24:59;;;;;;;5.45;2.70;;;17.90;63.30;;;;;;4880841;29;20393;-77
2022/06/28 03:27:25;;;;;;;2.90;2.33;;;17.90;63.30;;;;;;4912151;29;20504;-74
2022/06/28 03:29:51;;;;;;;3.65;2.45;;;17.90;63.30;;;;;;4896747;29;20068;-76
2022/06/28 03:32:24;;;;;;;3.65;2.58;;;17.90;63.30;;;;;;4870606;29;20040;-75
2022/06/28 03:34:50;;;;;;;3.67;2.72;;;17.80;63.30;;;;;;4900760;29;20040;-75
2022/06/28 03:37:18;;;;;;;3.20;2.40;;;17.80;63.30;;;;;;4884670;29;20028;-76
2022/06/28 03:39:47;;;;;;;2.55;2.20;;;17.80;63.30;;;;;;4900513;29;20046;-76
2022/06/28 03:42:13;;;;;;;2.63;2.38;;;17.80;63.30;;;;;;4884950;29;20024;-75
2022/06/28 03:44:42;;;;;;;3.25;2.40;;;17.80;63.30;;;;;;4899554;29;20053;-76
2022/06/28 03:47:08;;;;;;;3.33;2.55;;;17.80;63.30;;;;;;4884161;29;20131;-75
2022/06/28 03:49:54;;;;;;;2.72;2.30;;;17.80;63.30;;;;;;4912594;29;20036;-77
2022/06/28 03:52:34;;;;;;;2.63;2.33;;;17.80;63.30;;;;;;4883881;29;20096;-76
2022/06/28 03:55:13;;;;;;;3.17;2.60;;;17.70;63.30;;;;;;4885756;29;20488;-77
2022/06/28 03:57:44;;;;;;;3.05;2.50;;;17.70;63.30;;;;;;4900223;29;20060;-76
2022/06/28 04:00:12;;;;;;;3.35;2.45;;;17.60;63.30;;;;;;4899390;29;20060;-76
2022/06/28 04:02:45;;;;;;;3.17;2.70;;;17.60;63.40;;;;;;4899800;29;20021;-75
2022/06/28 04:05:18;;;;;;;2.47;2.25;;;17.60;63.40;;;;;;4884182;29;20040;-76
2022/06/28 04:07:44;;;;;;;3.28;2.47;;;17.60;63.40;;;;;;4868436;29;20448;-75
2022/06/28 04:10:10;;;;;;;3.17;2.30;;;17.60;63.50;;;;;;4900636;29;20046;-77
2022/06/28 04:12:38;;;;;;;2.80;2.45;;;17.60;63.50;;;;;;4899327;29;20036;-76
2022/06/28 04:15:21;;;;;;;3.10;2.47;;;17.60;63.50;;;;;;4912833;29;20060;-77
2022/06/28 04:17:58;;;;;;;4.32;2.67;;;17.60;64.20;;;;;;4885516;29;20031;-75
2022/06/28 04:20:45;;;;;;;3.15;2.55;;;17.60;63.50;;;;;;4918171;29;20052;-76
2022/06/28 04:23:12;;;;;;;2.72;2.47;;;17.60;63.60;;;;;;4903300;29;20088;-76
2022/06/28 04:25:39;;;;;;;3.30;2.55;;;17.60;63.60;;;;;;4886727;29;20541;-75
2022/06/28 04:28:16;;;;;;;2.95;2.53;;;17.60;63.60;;;;;;4903978;29;20127;-76
2022/06/28 04:30:53;;;;;;;2.65;2.33;;;17.50;63.60;;;;;;4918087;29;20048;-76
2022/06/28 04:33:20;;;;;;;2.97;2.33;;;17.50;63.60;;;;;;4902038;29;20123;-76
2022/06/28 04:35:45;;;;;;;2.50;2.30;;;17.50;63.60;;;;;;4886379;29;20074;-76
2022/06/28 04:38:12;;;;;;;3.67;2.35;;;17.50;63.70;;;;;;4918453;29;20335;-76
2022/06/28 04:40:47;;;;;;;2.83;2.38;;;17.50;63.70;;;;;;4887770;29;20024;-76
2022/06/28 04:43:39;;;;;;;2.60;2.25;;;17.50;63.70;;;;;;4890481;29;20040;-77
2022/06/28 04:46:05;;;;;;;3.08;2.30;;;17.50;63.60;;;;;;4902271;29;20062;-77
2022/06/28 04:48:34;;;;;;;3.13;2.30;;;17.50;63.70;;;;;;4901959;29;20037;-76
2022/06/28 04:51:12;;;;;;;2.88;2.50;;;17.50;63.80;;;;;;4901774;29;20036;-75
2022/06/28 04:53:42;;;;;;;2.92;2.30;;;17.50;63.80;;;;;;4873601;29;20039;-76
2022/06/28 04:56:09;;;;;;;3.10;2.40;;;17.50;63.80;;;;;;4902076;29;20032;-76
2022/06/28 04:58:39;;;;;;;2.97;2.40;;;17.50;63.90;;;;;;4901971;29;20039;-75
2022/06/28 05:01:05;;;;;;;2.60;2.30;;;17.50;63.90;;;;;;4901753;29;20040;-75
2022/06/28 05:03:31;;;;;;;2.15;2.03;;;17.50;63.90;;;;;;4917413;29;20043;-76
2022/06/28 05:06:03;;;;;;;2.88;2.58;;;17.50;63.90;;;;;;4917510;29;20492;-76
2022/06/28 05:08:30;;;;;;;3.28;2.30;;;17.50;63.90;;;;;;4917588;29;20032;-76
2022/06/28 05:11:01;;;;;;;2.72;2.28;;;17.50;63.90;;;;;;4917696;29;20029;-77
2022/06/28 05:13:39;;;;;;;2.70;2.30;;;17.50;63.90;;;;;;4903479;29;20040;-77
2022/06/28 05:16:08;;;;;;;2.80;2.50;;;17.50;63.90;;;;;;4901042;29;20096;-76
2022/06/28 05:18:34;;;;;;;2.80;2.10;;;17.50;63.90;;;;;;4901002;29;20028;-78
2022/06/28 05:21:02;;;;;;;3.00;1.92;;;17.50;64.00;;;;;;4886269;29;20032;-77
2022/06/28 05:23:28;;;;;;;3.08;2.35;;;17.50;64.00;;;;;;4870852;29;20446;-76
2022/06/28 05:26:13;;;;;;;2.38;1.90;;;17.50;64.00;;;;;;4890746;29;20067;-75
2022/06/28 05:28:40;;;;;;;2.92;2.10;;;17.50;63.90;;;;;;4886122;29;20036;-76
2022/06/28 05:31:06;;;;;;;3.08;2.50;;;17.50;63.90;;;;;;4886280;29;20421;-75
2022/06/28 05:33:32;;;;;;;2.50;2.20;;;17.50;64.00;;;;;;4886268;29;20040;-78
2022/06/28 05:35:57;;;;;;;2.60;2.20;;;17.50;64.00;;;;;;4885751;29;20040;-77
2022/06/28 05:38:23;;;;;;;3.15;2.28;;;17.50;64.00;;;;;;4901051;29;20584;-76
2022/06/28 05:40:49;;;;;;;3.40;2.30;;;17.50;64.10;;;;;;4885908;29;20063;-77
2022/06/28 05:43:15;;;;;;;3.17;2.40;;;17.50;64.00;;;;;;4900822;29;20060;-77
2022/06/28 05:45:40;;;;;;;2.47;2.17;;;17.50;64.10;;;;;;4900611;29;20529;-77
2022/06/28 05:48:06;;;;;;;2.28;2.03;;;17.50;64.00;;;;;;4900772;29;20028;-78
2022/06/28 05:50:32;;;;;;;2.60;1.88;;;17.50;64.10;;;;;;4900933;29;20129;-78
2022/06/28 05:52:58;;;;;;;3.60;2.40;;;17.50;64.10;;;;;;4916919;29;20461;-77
2022/06/28 05:55:24;;;;;;;2.10;1.90;;;17.50;64.10;;;;;;4901034;29;20520;-79
2022/06/28 05:57:51;;;;;;;2.10;1.90;;;17.50;64.10;;;;;;4900768;29;20036;-79
2022/06/28 06:00:17;;;;;;;3.13;2.20;;;17.50;64.10;;;;;;4885167;29;20028;-78
2022/06/28 06:02:44;;;;;;;2.33;2.05;;;17.60;64.20;;;;;;4900465;29;20032;-78
2022/06/28 06:05:10;;;;;;;2.58;2.00;;;17.50;64.10;;;;;;4900545;29;20043;-78
2022/06/28 06:07:36;;;;;;;1.98;1.70;;;17.50;64.10;;;;;;4900510;29;20032;-78
2022/06/28 06:10:03;;;;;;;2.50;1.90;;;17.50;64.10;;;;;;4869706;29;20051;-77
2022/06/28 06:12:30;;;;;;;2.88;2.10;;;17.60;64.10;;;;;;4885012;29;20040;-78
2022/06/28 06:14:55;;;;;;;2.33;1.88;;;17.60;64.10;;;;;;4916632;29;20158;-77
2022/06/28 06:17:21;;;;;;;2.15;1.95;;;17.60;64.10;;;;;;4900226;29;20032;-77
2022/06/28 06:19:47;;;;;;;2.25;1.80;;;17.60;64.10;;;;;;4869021;29;20442;-77
2022/06/28 06:22:13;;;;;;;1.98;1.77;;;17.60;64.10;;;;;;4869490;29;20051;-80
2022/06/28 06:24:39;;;;;;;1.95;1.65;;;17.60;64.10;;;;;;4884944;29;20036;-79
2022/06/28 06:27:34;;;;;;;2.08;1.65;;;17.60;64.10;;;;;;4896711;29;20079;-81
2022/06/28 06:30:00;;;;;;;2.78;1.90;;;17.60;64.00;;;;;;4885024;29;20040;-78
2022/06/28 06:32:38;;;;;;;2.65;1.92;;;17.60;64.00;;;;;;4888259;29;20028;-79
2022/06/28 06:35:22;;;;;;;2.85;1.85;;;17.60;64.00;;;;;;4917481;29;20071;-78
2022/06/28 06:37:48;;;;;;;1.95;1.65;;;17.60;64.00;;;;;;4884771;29;20032;-78
2022/06/28 06:40:14;;;;;;;2.10;1.83;;;17.60;64.00;;;;;;4884570;29;20092;-79
2022/06/28 06:42:40;;;;;;;2.03;1.80;;;17.70;64.10;;;;;;4900002;29;20028;-78
2022/06/28 06:45:11;;;;;;;2.72;1.70;;;17.70;64.10;;;;;;4886839;29;20032;-79
2022/06/28 06:47:37;;;;;;;1.73;1.50;;;17.70;64.10;;;;;;4899943;29;20039;-78
2022/06/28 06:50:08;;;;;;;2.40;1.65;;;17.70;64.10;;;;;;4884289;29;20135;-77
2022/06/28 06:52:35;;;;;;;2.40;1.80;;;17.70;64.10;;;;;;4885210;29;20465;-79
2022/06/28 06:55:01;;;;;;;2.90;1.77;;;17.70;64.10;;;;;;4884351;29;20067;-79
2022/06/28 06:57:27;;;;;;;3.40;1.80;;;17.70;64.00;;;;;;4884616;29;20068;-78
2022/06/28 06:59:52;;;;;;;2.22;1.75;;;17.70;64.00;;;;;;4868529;29;20059;-81
2022/06/28 07:02:18;;;;;;;1.92;1.58;;;17.70;63.90;;;;;;4915692;29;20064;-80
2022/06/28 07:04:48;;;;;;;2.13;1.60;;;17.70;63.90;;;;;;4870383;29;20040;-80
2022/06/28 07:07:14;;;;;;;1.98;1.60;;;17.80;64.00;;;;;;4904741;29;20072;-81
2022/06/28 07:09:40;;;;;;;2.22;1.63;;;17.80;64.00;;;;;;4903706;29;20024;-81
2022/06/28 07:12:07;;;;;;;2.78;1.88;;;17.80;64.00;;;;;;4903796;29;20475;-79
2022/06/28 07:14:33;;;;;;;2.55;1.60;;;17.80;64.00;;;;;;4903967;29;20033;-81
2022/06/28 07:17:02;;;;;;;3.42;1.67;;;17.80;64.00;;;;;;4903597;29;20119;-81
2022/06/28 07:19:28;;;;;;;1.60;1.50;;;17.80;63.90;;;;;;4887932;29;20138;-81
2022/06/28 07:21:55;;;;;;;1.42;1.33;;;17.90;64.00;;;;;;4903912;29;20079;-85
2022/06/28 07:24:21;;;;;;;2.78;1.83;;;17.80;64.60;;;;;;4872784;29;20060;-81
2022/06/28 07:26:49;;;;;;;2.15;1.60;;;17.90;64.20;;;;;;4888111;29;20028;-83
2022/06/28 07:29:15;;;;;;;2.63;1.70;;;17.90;64.30;;;;;;4919751;29;20028;-82
2022/06/28 07:31:44;;;;;;;2.28;1.63;;;18.00;64.30;;;;;;4919795;29;20074;-81
2022/06/28 07:34:10;;;;;;;2.28;1.63;;;18.00;64.30;;;;;;4919671;29;20075;-83
2022/06/28 07:36:36;;;;;;;2.17;1.42;;;18.00;64.30;;;;;;4888863;29;20036;-82
2022/06/28 07:39:02;;;;;;;2.67;1.77;;;18.10;64.30;;;;;;4904306;29;20469;-85
2022/06/28 07:41:46;;;;;;;2.17;1.50;;;18.10;64.20;;;;;;4907328;29;20115;-83
2022/06/28 07:44:48;;;;;;;2.25;1.48;;;18.20;64.10;;;;;;4812078;29;20038;-83
2022/06/28 07:47:14;;;;;;;3.38;2.08;;;18.20;64.00;;;;;;4904056;29;20476;-83
2022/06/28 07:52:36;;;;;;;1.83;1.50;;;18.30;64.00;;;;;;4920094;29;20127;-83
2022/06/28 07:55:09;;;;;;;2.63;1.80;;;18.30;63.80;;;;;;4919694;29;20055;-82
2022/06/28 07:57:45;;;;;;;3.55;1.40;;;18.40;63.80;;;;;;4889697;29;20126;-82
2022/06/28 08:00:12;;;;;;;1.80;1.40;;;18.50;63.70;;;;;;4873133;29;20074;-82
2022/06/28 08:02:43;;;;;;;1.98;1.50;;;18.50;63.70;;;;;;4904006;29;20032;-86
2022/06/28 08:05:09;;;;;;;2.05;1.38;;;18.60;63.60;;;;;;4888735;29;20032;-84
2022/06/28 08:07:36;;;;;;;3.08;1.60;;;18.70;63.50;;;;;;4887669;29;20024;-86
2022/06/28 08:10:03;;;;;;;2.05;1.45;;;18.70;63.40;;;;;;4919556;29;20028;-86
2022/06/28 08:12:29;;;;;;;2.38;1.70;;;18.80;63.40;;;;;;4903767;29;20465;-86
2022/06/28 08:14:57;;;;;;;1.95;1.30;;;18.90;63.30;;;;;;4888108;29;20040;-82
2022/06/28 08:17:24;;;;;;;2.97;1.60;;;19.00;63.20;;;;;;4919099;29;20031;-84
2022/06/28 08:19:51;;;;;;;2.15;1.33;;;19.10;63.10;;;;;;4887504;29;20072;-85
2022/06/28 08:22:17;;;;;;;1.98;1.60;;;19.10;63.00;;;;;;4904099;29;20040;-83
2022/06/28 08:24:43;;;;;;;2.22;1.50;;;19.20;62.90;;;;;;4872462;29;20039;-82
2022/06/28 08:27:09;;;;;;;1.67;1.40;;;19.30;62.80;;;;;;4902733;29;20114;-86
2022/06/28 08:29:36;;;;;;;3.13;1.35;;;19.40;62.70;;;;;;4888043;29;20099;-82
2022/06/28 08:32:03;;;;;;;2.40;1.30;;;19.40;62.60;;;;;;4902815;29;20032;-81
2022/06/28 08:34:30;;;;;;;2.25;1.40;;;19.50;62.50;;;;;;4872119;29;20032;-83
2022/06/28 08:36:56;;;;;;;1.73;1.40;;;19.60;62.40;;;;;;4871690;29;20472;-82
2022/06/28 08:39:21;;;;;;;1.52;1.20;;;19.70;62.30;;;;;;4903600;29;20043;-82
2022/06/28 08:41:48;;;;;;;2.60;1.25;;;19.80;62.20;;;;;;4902726;29;20028;-80
2022/06/28 08:44:14;;;;;;;1.90;1.08;;;19.90;62.20;;;;;;4918224;29;20040;-80
2022/06/28 08:46:40;;;;;;;1.55;1.25;;;19.90;62.00;;;;;;4887098;29;20100;-79
2022/06/28 08:49:15;;;;;;;1.75;1.10;;;20.00;62.00;;;;;;4911629;29;20430;-80
2022/06/28 08:51:41;;;;;;;1.30;1.00;;;20.20;62.00;;;;;;4886679;29;20062;-80
2022/06/28 08:54:07;;;;;;;2.03;1.20;;;20.20;61.80;;;;;;4870867;29;20028;-81
2022/06/28 08:56:35;;;;;;;1.20;1.10;;;20.30;61.70;;;;;;4902147;29;20198;-81
2022/06/28 08:59:01;;;;;;;1.98;1.30;;;20.40;61.60;;;;;;4917779;29;20024;-81
2022/06/28 09:01:27;;;;;;;1.48;1.00;;;20.50;61.50;;;;;;4885826;29;20044;-80
2022/06/28 09:03:54;;;;;;;1.52;1.25;;;20.60;61.40;;;;;;4901870;29;20472;-80
2022/06/28 09:06:23;;;;;;;2.78;1.48;;;20.70;61.40;;;;;;4902017;29;20447;-82
2022/06/28 09:08:49;;;;;;;1.10;1.00;;;20.80;61.30;;;;;;4886845;29;20068;-80
2022/06/28 09:11:15;;;;;;;1.25;1.08;;;20.90;61.20;;;;;;4886235;29;20044;-81
2022/06/28 09:13:41;;;;;;;1.00;0.90;;;21.00;61.10;;;;;;4901744;29;20056;-81
2022/06/28 09:16:07;;;;;;;1.73;0.88;;;21.10;61.00;;;;;;4901558;29;20539;-80
2022/06/28 09:18:36;;;;;;;1.33;1.10;;;21.20;60.90;;;;;;4901586;29;20028;-81
2022/06/28 09:21:05;;;;;;;2.60;1.10;;;21.30;60.90;;;;;;4918938;29;20581;-80
2022/06/28 09:23:33;;;;;;;1.30;0.90;;;21.30;60.70;;;;;;4917512;29;20032;-80
2022/06/28 09:26:06;;;;;;;2.30;1.00;;;21.50;60.70;;;;;;4902021;29;20542;-82
2022/06/28 09:28:33;;;;;;;2.08;1.00;;;21.50;60.60;;;;;;4900830;29;20124;-80
2022/06/28 09:31:18;;;;;;;2.15;1.20;;;21.70;60.50;;;;;;4917609;29;20187;-81
2022/06/28 09:33:47;;;;;;;1.67;1.00;;;21.80;60.50;;;;;;4901421;29;20040;-80
2022/06/28 09:36:18;;;;;;;1.90;1.02;;;21.80;60.30;;;;;;4901131;29;20035;-81
2022/06/28 09:38:44;;;;;;;0.98;0.85;;;21.90;60.20;;;;;;4901669;29;20033;-82
2022/06/28 09:41:20;;;;;;;1.15;1.02;;;22.00;60.10;;;;;;4917879;29;20028;-80
2022/06/28 09:43:58;;;;;;;1.15;0.85;;;22.10;60.10;;;;;;4902039;29;20079;-84
2022/06/28 09:46:26;;;;;;;1.45;1.10;;;22.20;59.90;;;;;;4886180;29;20039;-84
2022/06/28 09:49:06;;;;;;;1.77;1.00;;;22.30;59.80;;;;;;4901810;29;20032;-85
2022/06/28 09:51:36;;;;;;;1.48;1.00;;;22.40;59.80;;;;;;4902188;29;20028;-85
2022/06/28 09:54:08;;;;;;;1.73;1.20;;;22.50;59.70;;;;;;4901528;29;20036;-87
2022/06/28 09:56:37;;;;;;;1.10;0.80;;;22.60;59.60;;;;;;4886165;29;20119;-84
2022/06/28 09:59:07;;;;;;;0.90;0.68;;;22.70;59.50;;;;;;4902009;29;20028;-84
2022/06/28 10:01:34;;;;;;;1.40;0.85;;;22.80;59.40;;;;;;4901610;29;20065;-86
2022/06/28 10:04:01;;;;;;;1.00;0.70;;;22.90;59.30;;;;;;4904912;29;20036;-87
2022/06/28 10:06:27;;;;;;;1.15;0.65;;;23.00;59.20;;;;;;4877028;29;20123;-84
2022/06/28 10:08:54;;;;;;;1.42;0.80;;;23.10;59.10;;;;;;4923148;29;20032;-85
2022/06/28 10:11:20;;;;;;;1.33;0.90;;;23.20;59.10;;;;;;4904253;29;20112;-85
2022/06/28 10:16:48;;;;;;;1.10;0.82;;;23.40;59.00;;;;;;4889166;29;20126;-84
2022/06/28 10:19:18;;;;;;;2.03;1.20;;;23.50;58.80;;;;;;4914141;29;20049;-86
2022/06/28 10:21:46;;;;;;;1.30;0.73;;;23.60;58.70;;;;;;4882950;29;20041;-88
2022/06/28 10:24:13;;;;;;;0.90;0.70;;;23.60;58.60;;;;;;4882747;29;20123;-86
2022/06/28 10:27:05;;;;;;;1.63;1.00;;;23.70;58.50;;;;;;4883066;29;20081;-86
2022/06/28 10:29:53;;;;;;;1.15;0.80;;;23.80;58.40;;;;;;4898209;29;20143;-86
2022/06/28 10:33:06;;;;;;;1.58;0.90;;;23.90;58.20;;;;;;4883126;29;20078;-90
2022/06/28 10:35:32;;;;;;;1.23;0.70;;;24.00;58.30;;;;;;4860668;29;20041;-89
2022/06/28 10:38:07;;;;;;;0.98;0.70;;;24.10;58.00;;;;;;4880915;29;20033;-88
2022/06/28 10:40:45;;;;;;;1.17;0.63;;;24.20;58.10;;;;;;4899591;29;20053;-88
2022/06/28 10:43:12;;;;;;;0.85;0.60;;;24.30;57.90;;;;;;4898215;29;20041;-88
2022/06/28 10:46:00;;;;;;;0.85;0.60;;;24.40;57.80;;;;;;4882492;29;20029;-85
2022/06/28 10:48:35;;;;;;;0.68;0.68;;;24.50;57.90;;;;;;4898080;29;20036;-87
2022/06/28 10:51:03;;;;;;;0.77;0.70;;;24.60;57.70;;;;;;4914256;29;20039;-88
2022/06/28 10:53:55;;;;;;;1.15;0.90;;;24.70;57.60;;;;;;4882667;29;20033;-87
2022/06/28 10:56:22;;;;;;;1.70;0.60;;;24.70;57.60;;;;;;4899927;29;20044;-87
2022/06/28 10:58:58;;;;;;;1.08;0.70;;;24.80;57.30;;;;;;4887374;29;20084;-85
2022/06/28 11:01:44;;;;;;;0.57;0.55;;;24.90;57.30;;;;;;4888140;29;20040;-90
2022/06/28 11:04:18;;;;;;;2.10;0.80;;;25.00;57.30;;;;;;4898947;29;20477;-82
2022/06/28 11:06:57;;;;;;;1.08;0.80;;;25.10;56.30;;;;;;4882017;29;20036;-81
2022/06/28 11:09:38;;;;;;;1.92;0.82;;;25.10;55.40;;;;;;4897242;29;20036;-84
2022/06/28 11:12:10;;;;;;;2.17;0.95;;;25.20;54.70;;;;;;4896957;29;20088;-82
2022/06/28 11:14:53;;;;;;;1.88;1.10;;;25.20;54.40;;;;;;4881398;29;20036;-81
2022/06/28 11:17:23;;;;;;;2.88;1.00;;;25.20;54.00;;;;;;4898595;29;20124;-82
2022/06/28 11:19:52;;;;;;;1.77;0.90;;;25.30;53.80;;;;;;4915596;29;20072;-81
2022/06/28 11:22:33;;;;;;;1.95;1.00;;;25.30;53.30;;;;;;4899988;29;20078;-81
2022/06/28 11:25:01;;;;;;;1.58;0.82;;;25.30;52.90;;;;;;4900912;29;20056;-84
2022/06/28 11:27:27;;;;;;;2.38;1.00;;;25.40;52.70;;;;;;4899444;29;20032;-83
2022/06/28 11:30:02;;;;;;;2.65;0.85;;;25.40;52.50;;;;;;4915364;29;20066;-81
2022/06/28 11:32:34;;;;;;;1.15;0.80;;;25.30;52.30;;;;;;4899676;29;20060;-84
2022/06/28 11:35:03;;;;;;;0.77;0.77;;;25.40;52.30;;;;;;4900066;29;20063;-85
2022/06/28 11:37:31;;;;;;;1.40;0.95;;;25.40;52.10;;;;;;4900144;29;20028;-84
2022/06/28 11:40:08;;;;;;;2.10;0.80;;;25.40;51.90;;;;;;4900157;29;20032;-84
2022/06/28 11:42:37;;;;;;;1.10;0.65;;;25.40;52.50;;;;;;4899801;29;20115;-84
2022/06/28 11:45:03;;;;;;;1.63;0.93;;;25.40;51.80;;;;;;4900230;29;20047;-85
2022/06/28 11:47:32;;;;;;;1.77;0.88;;;25.40;51.60;;;;;;4899788;29;20028;-83
2022/06/28 11:50:17;;;;;;;1.15;0.70;;;25.40;51.60;;;;;;4915434;29;20087;-84
2022/06/28 11:52:54;;;;;;;1.77;1.00;;;25.40;51.60;;;;;;4902687;29;20031;-85
2022/06/28 11:55:43;;;;;;;1.27;0.85;;;25.40;51.60;;;;;;4903480;29;20064;-82
2022/06/28 11:58:23;;;;;;;0.77;0.70;;;25.40;51.70;;;;;;4902858;29;20036;-87
2022/06/28 12:01:21;;;;;;;1.77;0.80;;;25.40;51.60;;;;;;4903170;29;20056;-83
2022/06/28 12:03:46;;;;;;;0.80;0.80;;;25.40;51.70;;;;;;4902949;29;20040;-81
2022/06/28 12:06:22;;;;;;;2.25;1.10;;;25.40;51.50;;;;;;4903091;29;20024;-84
2022/06/28 12:08:51;;;;;;;2.42;0.90;;;25.40;51.40;;;;;;4903233;29;20040;-82
2022/06/28 12:11:36;;;;;;;2.00;0.88;;;25.40;51.40;;;;;;4902714;29;20028;-83
2022/06/28 12:14:07;;;;;;;1.10;0.85;;;25.40;51.50;;;;;;4902827;29;20036;-83
2022/06/28 12:16:40;;;;;;;1.10;0.70;;;25.40;51.30;;;;;;4918680;29;20071;-83
2022/06/28 12:19:23;;;;;;;2.17;0.90;;;25.40;51.30;;;;;;4902614;29;20052;-80
2022/06/28 12:22:08;;;;;;;1.58;0.70;;;25.40;50.90;;;;;;4918372;29;20485;-83
2022/06/28 12:24:41;;;;;;;2.85;1.08;;;25.40;51.10;;;;;;4903423;29;20119;-82
2022/06/28 12:27:07;;;;;;;1.73;0.73;;;25.40;51.20;;;;;;4918566;29;20028;-82
2022/06/28 12:29:33;;;;;;;1.83;0.88;;;25.40;51.20;;;;;;4902633;29;20392;-84
2022/06/28 12:31:59;;;;;;;2.55;1.15;;;25.40;51.20;;;;;;4918973;29;20128;-84
2022/06/28 12:34:30;;;;;;;1.35;0.80;;;25.40;50.90;;;;;;4902999;29;20095;-83
2022/06/28 12:36:56;;;;;;;2.33;0.95;;;25.40;50.60;;;;;;4902351;29;20096;-85
2022/06/28 12:39:22;;;;;;;1.77;1.00;;;25.40;50.60;;;;;;4902476;29;20032;-86
2022/06/28 12:41:48;;;;;;;2.63;1.30;;;25.40;50.70;;;;;;4903398;29;20347;-83
2022/06/28 12:44:15;;;;;;;3.17;1.23;;;25.40;50.60;;;;;;4902429;29;20092;-85
2022/06/28 12:46:41;;;;;;;2.42;0.95;;;25.40;50.60;;;;;;4918229;29;20036;-88
2022/06/28 12:49:07;;;;;;;2.60;0.90;;;25.40;50.50;;;;;;4902227;29;20026;-84
2022/06/28 12:51:36;;;;;;;1.58;1.02;;;25.50;51.40;;;;;;4902240;29;20028;-83
2022/06/28 12:54:02;;;;;;;2.00;0.90;;;25.40;51.00;;;;;;4902671;29;20028;-84
2022/06/28 12:56:28;;;;;;;1.88;1.00;;;25.40;51.10;;;;;;4902465;29;20032;-83
2022/06/28 12:58:58;;;;;;;1.55;0.90;;;25.40;51.10;;;;;;4901825;29;20051;-83
2022/06/28 13:01:25;;;;;;;1.80;1.08;;;25.40;51.00;;;;;;4917629;29;20512;-84
2022/06/28 13:03:53;;;;;;;2.45;1.25;;;25.40;50.80;;;;;;4901719;29;20020;-83
2022/06/28 13:06:19;;;;;;;2.53;1.00;;;25.40;50.80;;;;;;4919387;29;20510;-84
2022/06/28 13:08:45;;;;;;;2.00;1.00;;;25.50;50.80;;;;;;4886543;29;20032;-81
2022/06/28 13:11:13;;;;;;;1.33;0.80;;;25.50;50.70;;;;;;4918494;29;20024;-83
2022/06/28 13:13:39;;;;;;;1.10;0.80;;;25.50;50.70;;;;;;4902024;29;20039;-80
2022/06/28 13:16:06;;;;;;;1.60;0.80;;;25.50;50.90;;;;;;4918764;29;20044;-80